sensor_id;sensor_type;location;lat;lon;timestamp;P1;durP1;ratioP1;P2;durP2;ratioP2
20995;SDS011;10656;52.200;21.052;2024-03-02T00:07:47;49.47;;;30.27;;
20995;SDS011;10656;52.200;21.052;2024-03-02T00:12:10;50.13;;;29.27;;
20995;SDS011;10656;52.200;21.052;2024-03-02T00:47:45;51.53;;;29.90;;
20995;SDS011;10656;52.200;21.052;2024-03-02T01:28:53;52.77;;;29.50;;
20995;SDS011;10656;52.200;21.052;2024-03-02T01:54:17;46.60;;;29.23;;
20995;SDS011;10656;52.200;21.052;2024-03-02T02:24:47;44.60;;;26.67;;
20995;SDS011;10656;52.200;21.052;2024-03-02T02:29:06;46.90;;;28.77;;
20995;SDS011;10656;52.200;21.052;2024-03-02T02:50:06;45.43;;;28.03;;
20995;SDS011;10656;52.200;21.052;2024-03-02T03:25:03;43.70;;;26.23;;
20995;SDS011;10656;52.200;21.052;2024-03-02T03:45:36;50.67;;;27.00;;
20995;SDS011;10656;52.200;21.052;2024-03-02T04:06:07;48.97;;;27.57;;
20995;SDS011;10656;52.200;21.052;2024-03-02T04:31:32;47.50;;;26.77;;
20995;SDS011;10656;52.200;21.052;2024-03-02T04:51:52;50.63;;;26.43;;
20995;SDS011;10656;52.200;21.052;2024-03-02T05:17:10;49.67;;;27.57;;
20995;SDS011;10656;52.200;21.052;2024-03-02T05:42:29;47.20;;;26.90;;
20995;SDS011;10656;52.200;21.052;2024-03-02T06:43:20;45.43;;;24.90;;
20995;SDS011;10656;52.200;21.052;2024-03-02T07:08:46;39.43;;;22.10;;
20995;SDS011;10656;52.200;21.052;2024-03-02T07:39:05;40.80;;;21.33;;
20995;SDS011;10656;52.200;21.052;2024-03-02T08:19:41;33.93;;;19.07;;
20995;SDS011;10656;52.200;21.052;2024-03-02T09:05:16;33.03;;;19.33;;
20995;SDS011;10656;52.200;21.052;2024-03-02T09:30:23;33.43;;;19.87;;
20995;SDS011;10656;52.200;21.052;2024-03-02T09:50:54;31.17;;;20.10;;
20995;SDS011;10656;52.200;21.052;2024-03-02T10:16:25;32.53;;;20.00;;
20995;SDS011;10656;52.200;21.052;2024-03-02T10:20:44;24.93;;;15.20;;
20995;SDS011;10656;52.200;21.052;2024-03-02T11:17:07;38.30;;;22.33;;
20995;SDS011;10656;52.200;21.052;2024-03-02T11:42:31;39.07;;;24.17;;
20995;SDS011;10656;52.200;21.052;2024-03-02T12:53:27;40.60;;;27.20;;
20995;SDS011;10656;52.200;21.052;2024-03-02T13:18:44;44.33;;;28.43;;
20995;SDS011;10656;52.200;21.052;2024-03-02T13:54:21;43.20;;;27.80;;
20995;SDS011;10656;52.200;21.052;2024-03-02T14:24:35;40.27;;;26.30;;
20995;SDS011;10656;52.200;21.052;2024-03-02T14:49:46;44.53;;;28.63;;
20995;SDS011;10656;52.200;21.052;2024-03-02T15:10:28;45.03;;;29.23;;
20995;SDS011;10656;52.200;21.052;2024-03-02T15:35:44;44.90;;;29.37;;
20995;SDS011;10656;52.200;21.052;2024-03-02T16:21:30;53.67;;;32.47;;
20995;SDS011;10656;52.200;21.052;2024-03-02T16:56:59;45.03;;;30.00;;
20995;SDS011;10656;52.200;21.052;2024-03-02T17:27:20;43.77;;;28.13;;
20995;SDS011;10656;52.200;21.052;2024-03-02T17:52:08;40.13;;;27.33;;
20995;SDS011;10656;52.200;21.052;2024-03-02T18:28:13;42.47;;;27.70;;
20995;SDS011;10656;52.200;21.052;2024-03-02T18:58:09;42.17;;;27.67;;
20995;SDS011;10656;52.200;21.052;2024-03-02T19:18:47;40.97;;;25.10;;
20995;SDS011;10656;52.200;21.052;2024-03-02T19:21:27;37.93;;;25.50;;
20995;SDS011;10656;52.200;21.052;2024-03-02T19:44:18;39.40;;;24.57;;
20995;SDS011;10656;52.200;21.052;2024-03-02T20:09:26;37.93;;;24.63;;
20995;SDS011;10656;52.200;21.052;2024-03-02T20:29:56;37.40;;;24.07;;
20995;SDS011;10656;52.200;21.052;2024-03-02T20:55:14;32.77;;;20.73;;
20995;SDS011;10656;52.200;21.052;2024-03-02T21:15:43;34.97;;;21.87;;
20995;SDS011;10656;52.200;21.052;2024-03-02T21:41:04;32.40;;;22.53;;
20995;SDS011;10656;52.200;21.052;2024-03-02T23:06:35;33.77;;;22.80;;
20995;SDS011;10656;52.200;21.052;2024-03-02T23:32:21;36.07;;;22.03;;
20995;SDS011;10656;52.200;21.052;2024-03-02T23:52:29;37.10;;;22.60;;
